CPY2 weather

Milton (District Hospital) Heliport
Milton, Ontario, Canada

Public forecast

Using degrees Celsius for public forecast. Weather courtesy of forecast.io.

Closest aviation weather report (METAR) to Milton (District Hospital) Heliport

Closest report is Lester B. Pearson International Airport, 15.1 nm (27.9 km) NE. Retrieved 2019/12/14 07:00 UTC (21 minutes ago):

CYYZ 140700Z 08010KT 15SM FEW045 BKN095 02/M00 A2978 RMK SC2AS5 SLP092

Closest aviation forecast (TAF) to Milton (District Hospital) Heliport

Closest forecast is Lester B. Pearson International Airport, 15.1 nm (27.9 km) NE. Retrieved 2019/12/14 09:40 UTC (0 seconds ago):

TAF CYYZ 140838Z 1409/1512 05008KT P6SM SCT008 BKN040 TEMPO 1409/1412 5SM -RA BR BKN008 OVC040 PROB30 1409/1412 2SM -RA BR BKN003 OVC010 FM141200 36008KT 3SM -RA BR BKN008 OVC015 TEMPO 1412/1417 6SM -RA BR SCT008 OVC015 BECMG 1415/1417 34012G22KT FM141700 34012G22KT 3SM -RASN BR SCT008 OVC015 BECMG 1418/1420 32018G28KT FM142100 32018G28KT 3SM -RASN BR SCT015 BKN040 OVC090 FM142300 32015G25KT 3SM -SNRA BR SCT015 BKN040 OVC090 FM150100 29012G22KT P6SM -SHSN SCT020 BKN030 RMK NXT FCST BY 141200Z